Wetterstation Vordersexau
Wetterdaten: Woche 28.07.14 - 03.08.14 (KW31)
Datum Zeit Temp. A. Feuchte A. Luftdruck Regen Wind Richtung Taupunkt Windchill Windben
28.07.2014 00:00 19,2 C 84 % 985,9 hPa 0,0 l/m 0,0 km/h SO 16,4 C 19,2 C 0,0 km/h
28.07.2014 01:00 18,8 C 84 % 985,8 hPa 0,0 l/m 0,4 km/h SO 16,0 C 18,8 C 0,4 km/h
28.07.2014 02:00 18,3 C 85 % 984,9 hPa 0,0 l/m 0,0 km/h SO 15,7 C 18,3 C 0,0 km/h
28.07.2014 03:00 17,9 C 85 % 984,6 hPa 0,0 l/m 0,0 km/h O-SO 15,3 C 17,9 C 0,0 km/h
28.07.2014 04:00 17,5 C 86 % 983,9 hPa 0,0 l/m 0,0 km/h SO 15,1 C 17,5 C 0,0 km/h
28.07.2014 05:00 17,4 C 86 % 983,5 hPa 0,0 l/m 0,0 km/h SO 15,0 C 17,4 C 0,0 km/h
28.07.2014 06:00 17,4 C 86 % 983,5 hPa 0,0 l/m 0,0 km/h O-NO 15,0 C 17,4 C 0,0 km/h
28.07.2014 07:00 18,3 C 86 % 983,3 hPa 0,0 l/m 0,0 km/h SO 15,9 C 18,3 C 0,0 km/h
28.07.2014 08:00 20,5 C 84 % 983,1 hPa 0,0 l/m 0,0 km/h W 17,7 C 20,5 C 0,0 km/h
28.07.2014 09:00 22,4 C 78 % 983,2 hPa 0,0 l/m 0,0 km/h W 18,4 C 22,4 C 0,0 km/h
28.07.2014 10:00 26,1 C 70 % 982,9 hPa 0,0 l/m 0,0 km/h NW 20,2 C 26,1 C 0,0 km/h
28.07.2014 11:00 26,5 C 62 % 982,4 hPa 0,0 l/m 0,0 km/h W 18,6 C 26,5 C 0,0 km/h
28.07.2014 12:00 28,1 C 59 % 982,1 hPa 0,0 l/m 0,0 km/h SO 19,3 C 28,1 C 0,0 km/h
28.07.2014 13:00 23,9 C 72 % 982,0 hPa 0,0 l/m 6,5 km/h SO 18,5 C 23,9 C 3,6 km/h
28.07.2014 14:00 25,8 C 68 % 981,3 hPa 0,0 l/m 0,0 km/h NO 19,4 C 25,8 C 0,0 km/h
28.07.2014 15:00 31,2 C 53 % 980,3 hPa 0,0 l/m 0,0 km/h W 20,5 C 31,2 C 0,0 km/h
28.07.2014 16:00 24,8 C 69 % 979,9 hPa 0,0 l/m 1,9 km/h S 18,7 C 24,8 C 1,1 km/h
28.07.2014 17:00 19,1 C 82 % 980,9 hPa 1,0 l/m 2,6 km/h W 16,0 C 19,1 C 1,4 km/h
28.07.2014 18:00 18,3 C 85 % 981,5 hPa 1,0 l/m 0,6 km/h W-NW 15,7 C 18,3 C 0,4 km/h
28.07.2014 19:00 18,9 C 85 % 981,9 hPa 0,0 l/m 0,0 km/h N-NO 16,3 C 18,9 C 0,0 km/h
28.07.2014 20:00 17,8 C 85 % 982,5 hPa 0,0 l/m 0,0 km/h N-NO 15,2 C 17,8 C 0,0 km/h
28.07.2014 21:00 17,1 C 86 % 982,8 hPa 0,0 l/m 0,0 km/h W 14,7 C 17,1 C 0,0 km/h
28.07.2014 22:00 16,9 C 85 % 982,9 hPa 0,2 l/m 0,7 km/h W 14,4 C 16,9 C 0,7 km/h
28.07.2014 23:00 16,1 C 84 % 982,3 hPa 0,4 l/m 2,5 km/h W 13,4 C 16,1 C 2,5 km/h
29.07.2014 00:00 15,9 C 82 % 981,8 hPa 0,2 l/m 0,0 km/h W-SW 12,8 C 15,9 C 0,0 km/h
29.07.2014 01:00 15,8 C 83 % 981,8 hPa 0,0 l/m 0,0 km/h W-SW 12,9 C 15,8 C 0,0 km/h
29.07.2014 02:00 15,6 C 83 % 981,5 hPa 0,0 l/m 0,0 km/h W 12,7 C 15,6 C 0,0 km/h
29.07.2014 03:00 15,6 C 83 % 981,0 hPa 0,0 l/m 0,0 km/h W 12,7 C 15,6 C 0,0 km/h
29.07.2014 04:00 15,4 C 83 % 980,9 hPa 0,0 l/m 0,0 km/h S-SW 12,5 C 15,4 C 0,0 km/h
29.07.2014 05:00 15,4 C 83 % 980,5 hPa 0,2 l/m 0,0 km/h W 12,5 C 15,4 C 0,0 km/h
29.07.2014 06:00 15,1 C 82 % 980,3 hPa 0,2 l/m 0,0 km/h W 12,0 C 15,1 C 0,0 km/h
29.07.2014 07:00 15,3 C 82 % 980,2 hPa 0,0 l/m 0,0 km/h SW 12,2 C 15,3 C 0,0 km/h
29.07.2014 08:00 15,5 C 82 % 980,4 hPa 0,2 l/m 1,9 km/h W-SW 12,4 C 15,5 C 1,1 km/h
29.07.2014 09:00 15,9 C 82 % 980,7 hPa 0,2 l/m 1,9 km/h W-SW 12,8 C 15,9 C 1,1 km/h
29.07.2014 10:00 16,8 C 85 % 980,5 hPa 0,0 l/m 4,5 km/h W 14,3 C 16,8 C 2,5 km/h
29.07.2014 11:00 16,9 C 86 % 980,6 hPa 0,2 l/m 0,6 km/h W-SW 14,5 C 16,9 C 0,4 km/h
29.07.2014 12:00 17,2 C 87 % 980,5 hPa 0,6 l/m 0,6 km/h SW 15,0 C 17,2 C 0,4 km/h
29.07.2014 13:00 19,5 C 85 % 980,7 hPa 0,2 l/m 0,0 km/h W 16,9 C 19,5 C 0,0 km/h
29.07.2014 14:00 18,7 C 84 % 980,5 hPa 0,0 l/m 1,9 km/h SW 15,9 C 18,7 C 1,1 km/h
29.07.2014 15:00 20,1 C 81 % 980,3 hPa 0,0 l/m 0,0 km/h W 16,7 C 20,1 C 0,0 km/h
29.07.2014 16:00 22,9 C 73 % 980,1 hPa 0,0 l/m 0,0 km/h W-SW 17,8 C 22,9 C 0,0 km/h
29.07.2014 17:00 20,5 C 77 % 980,3 hPa 0,0 l/m 0,0 km/h W 16,3 C 20,5 C 0,0 km/h
29.07.2014 18:00 20,4 C 79 % 980,1 hPa 0,0 l/m 0,0 km/h W 16,6 C 20,4 C 0,0 km/h
29.07.2014 19:00 19,2 C 80 % 980,3 hPa 0,0 l/m 0,0 km/h SO 15,7 C 19,2 C 0,0 km/h
29.07.2014 20:00 17,8 C 85 % 980,3 hPa 0,2 l/m 0,0 km/h SO 15,2 C 17,8 C 0,0 km/h
29.07.2014 21:00 17,3 C 86 % 980,5 hPa 0,0 l/m 0,0 km/h SO 14,9 C 17,3 C 0,0 km/h
29.07.2014 22:00 17,1 C 86 % 980,7 hPa 0,0 l/m 0,0 km/h SW 14,7 C 17,1 C 0,0 km/h
29.07.2014 23:00 16,9 C 85 % 980,8 hPa 0,0 l/m 1,8 km/h S 14,4 C 16,9 C 1,8 km/h
30.07.2014 00:00 16,4 C 84 % 980,7 hPa 0,8 l/m 0,0 km/h S 13,7 C 16,4 C 0,0 km/h
30.07.2014 01:00 16,3 C 83 % 980,3 hPa 2,3 l/m 0,0 km/h S 13,4 C 16,3 C 0,0 km/h
30.07.2014 02:00 16,2 C 83 % 980,3 hPa 1,7 l/m 0,0 km/h NO 13,3 C 16,2 C 0,0 km/h
30.07.2014 03:00 16,1 C 83 % 980,2 hPa 0,4 l/m 0,0 km/h S-SW 13,2 C 16,1 C 0,0 km/h
30.07.2014 04:00 15,9 C 81 % 979,7 hPa 2,3 l/m 0,0 km/h S-SW 12,6 C 15,9 C 0,0 km/h
30.07.2014 05:00 15,9 C 82 % 980,1 hPa 0,0 l/m 0,0 km/h S-SW 12,8 C 15,9 C 0,0 km/h
30.07.2014 06:00 15,6 C 81 % 980,1 hPa 1,7 l/m 0,0 km/h S-SW 12,3 C 15,6 C 0,0 km/h
30.07.2014 07:00 15,9 C 81 % 980,3 hPa 0,0 l/m 0,0 km/h S-SW 12,6 C 15,9 C 0,0 km/h
30.07.2014 08:00 16,5 C 81 % 980,4 hPa 0,0 l/m 0,0 km/h W-SW 13,2 C 16,5 C 0,0 km/h
30.07.2014 09:00 16,4 C 81 % 981,1 hPa 0,2 l/m 0,0 km/h W 13,1 C 16,4 C 0,0 km/h
30.07.2014 10:00 17,4 C 80 % 981,4 hPa 0,2 l/m 6,5 km/h W-SW 13,9 C 17,4 C 3,6 km/h
30.07.2014 11:00 17,5 C 86 % 981,7 hPa 0,4 l/m 0,0 km/h W-SW 15,1 C 17,5 C 0,0 km/h
30.07.2014 12:00 18,6 C 87 % 982,2 hPa 0,0 l/m 0,0 km/h W 16,4 C 18,6 C 0,0 km/h
30.07.2014 13:00 20,9 C 85 % 982,3 hPa 0,0 l/m 0,0 km/h W 18,3 C 20,9 C 0,0 km/h
30.07.2014 14:00 20,9 C 83 % 982,2 hPa 0,0 l/m 1,9 km/h W 17,9 C 20,9 C 1,1 km/h
30.07.2014 15:00 21,8 C 83 % 982,7 hPa 0,0 l/m 0,0 km/h W 18,8 C 21,8 C 0,0 km/h
30.07.2014 16:00 20,5 C 84 % 983,0 hPa 0,0 l/m 0,0 km/h W-NW 17,7 C 20,5 C 0,0 km/h
30.07.2014 17:00 20,6 C 84 % 983,1 hPa 0,0 l/m 0,0 km/h W 17,8 C 20,6 C 0,0 km/h
30.07.2014 18:00 20,3 C 85 % 983,2 hPa 0,0 l/m 0,0 km/h W 17,7 C 20,3 C 0,0 km/h
30.07.2014 19:00 21,1 C 85 % 983,4 hPa 0,2 l/m 0,0 km/h N-NO 18,5 C 21,1 C 0,0 km/h
30.07.2014 20:00 18,4 C 87 % 984,2 hPa 0,6 l/m 0,0 km/h N-NW 16,2 C 18,4 C 0,0 km/h
30.07.2014 21:00 17,8 C 86 % 984,8 hPa 1,0 l/m 0,0 km/h NO 15,4 C 17,8 C 0,0 km/h
30.07.2014 22:00 17,6 C 85 % 985,3 hPa 0,4 l/m 0,0 km/h O-SO 15,0 C 17,6 C 0,0 km/h
30.07.2014 23:00 17,5 C 84 % 985,4 hPa 0,2 l/m 0,0 km/h O-SO 14,8 C 17,5 C 0,0 km/h
31.07.2014 00:00 17,4 C 84 % 985,5 hPa 0,0 l/m 0,0 km/h O-SO 14,7 C 17,4 C 0,0 km/h
31.07.2014 01:00 17,2 C 83 % 985,8 hPa 0,0 l/m 0,0 km/h O-SO 14,3 C 17,2 C 0,0 km/h
31.07.2014 02:00 16,8 C 83 % 985,9 hPa 0,0 l/m 0,0 km/h O-SO 13,9 C 16,8 C 0,0 km/h
31.07.2014 03:00 16,4 C 83 % 985,9 hPa 0,0 l/m 0,0 km/h O-SO 13,5 C 16,4 C 0,0 km/h
31.07.2014 04:00 15,8 C 84 % 986,1 hPa 0,0 l/m 0,0 km/h O-SO 13,1 C 15,8 C 0,0 km/h
31.07.2014 05:00 15,2 C 84 % 986,1 hPa 0,0 l/m 0,0 km/h O-SO 12,5 C 15,2 C 0,0 km/h
31.07.2014 06:00 14,3 C 83 % 986,3 hPa 0,0 l/m 0,0 km/h O-SO 11,5 C 14,3 C 0,0 km/h
31.07.2014 07:00 15,3 C 81 % 986,5 hPa 0,0 l/m 0,0 km/h O-SO 12,1 C 15,3 C 0,0 km/h
31.07.2014 08:00 20,6 C 81 % 986,7 hPa 0,0 l/m 0,0 km/h N-NW 17,2 C 20,6 C 0,0 km/h
31.07.2014 09:00 24,4 C 77 % 986,9 hPa 0,0 l/m 0,0 km/h W 20,1 C 24,4 C 0,0 km/h
31.07.2014 10:00 24,2 C 68 % 986,8 hPa 0,0 l/m 0,0 km/h NW 17,9 C 24,2 C 0,0 km/h
31.07.2014 11:00 28,2 C 61 % 986,6 hPa 0,2 l/m 0,0 km/h N-NW 19,9 C 28,2 C 0,0 km/h
31.07.2014 12:00 27,9 C 60 % 986,2 hPa 0,0 l/m 2,6 km/h W-NW 19,4 C 27,9 C 1,4 km/h
31.07.2014 13:00 29,6 C 53 % 985,8 hPa 0,0 l/m 7,8 km/h N-NO 19,0 C 29,5 C 4,3 km/h
31.07.2014 14:00 27,9 C 55 % 985,6 hPa 0,0 l/m 0,0 km/h N 18,0 C 27,9 C 0,0 km/h
31.07.2014 15:00 28,4 C 55 % 985,0 hPa 0,0 l/m 0,0 km/h N-NO 18,5 C 28,4 C 0,0 km/h
31.07.2014 16:00 31,3 C 48 % 984,7 hPa 0,0 l/m 8,4 km/h N 18,9 C 31,2 C 4,7 km/h
31.07.2014 17:00 31,6 C 44 % 984,3 hPa 0,0 l/m 1,3 km/h N-NO 17,8 C 31,6 C 0,7 km/h
31.07.2014 18:00 30,1 C 48 % 983,9 hPa 0,0 l/m 4,5 km/h N-NO 17,9 C 30,1 C 2,5 km/h
31.07.2014 19:00 29,9 C 48 % 983,9 hPa 0,0 l/m 0,0 km/h N-NO 17,7 C 29,9 C 0,0 km/h
31.07.2014 20:00 23,1 C 63 % 983,9 hPa 0,0 l/m 0,0 km/h O-NO 15,7 C 23,1 C 0,0 km/h
31.07.2014 21:00 19,5 C 76 % 983,9 hPa 0,0 l/m 0,0 km/h O-NO 15,2 C 19,5 C 0,0 km/h
31.07.2014 22:00 18,1 C 81 % 984,2 hPa 0,0 l/m 0,0 km/h O-NO 14,8 C 18,1 C 0,0 km/h
31.07.2014 23:00 17,4 C 84 % 984,0 hPa 0,0 l/m 0,0 km/h O-NO 14,7 C 17,4 C 0,0 km/h
01.08.2014 00:00 16,8 C 85 % 984,0 hPa 0,0 l/m 0,0 km/h NO 14,3 C 16,8 C 0,0 km/h
01.08.2014 01:00 16,4 C 86 % 983,8 hPa 0,0 l/m 0,0 km/h NO 14,1 C 16,4 C 0,0 km/h
01.08.2014 02:00 15,6 C 86 % 983,7 hPa 0,0 l/m 0,0 km/h N 13,3 C 15,6 C 0,0 km/h
01.08.2014 03:00 15,0 C 86 % 983,4 hPa 0,0 l/m 0,0 km/h O-NO 12,7 C 15,0 C 0,0 km/h
01.08.2014 04:00 14,4 C 86 % 983,2 hPa 0,0 l/m 0,0 km/h O-NO 12,1 C 14,4 C 0,0 km/h
01.08.2014 05:00 13,9 C 86 % 983,1 hPa 0,0 l/m 0,0 km/h O-NO 11,6 C 13,9 C 0,0 km/h
01.08.2014 06:00 13,6 C 85 % 983,0 hPa 0,0 l/m 0,0 km/h O-NO 11,1 C 13,6 C 0,0 km/h
01.08.2014 07:00 14,9 C 84 % 982,8 hPa 0,0 l/m 0,0 km/h SO 12,2 C 14,9 C 0,0 km/h
01.08.2014 08:00 18,9 C 76 % 982,8 hPa 0,0 l/m 0,0 km/h NO 14,6 C 18,9 C 0,0 km/h
01.08.2014 09:00 27,9 C 61 % 982,4 hPa 0,0 l/m 0,0 km/h W-SW 19,7 C 27,9 C 0,0 km/h
01.08.2014 10:00 26,1 C 61 % 982,3 hPa 0,0 l/m 0,0 km/h S-SW 18,0 C 26,1 C 0,0 km/h
01.08.2014 11:00 25,9 C 64 % 982,3 hPa 0,0 l/m 7,1 km/h W 18,6 C 25,7 C 4,0 km/h
01.08.2014 12:00 28,6 C 58 % 981,8 hPa 0,0 l/m 11,7 km/h N-NO 19,5 C 28,0 C 6,5 km/h
01.08.2014 13:00 30,3 C 51 % 981,3 hPa 0,0 l/m 0,0 km/h W-NW 19,0 C 30,3 C 0,0 km/h
01.08.2014 14:00 30,5 C 51 % 980,6 hPa 0,0 l/m 0,0 km/h W-NW 19,2 C 30,5 C 0,0 km/h
01.08.2014 15:00 31,9 C 48 % 980,1 hPa 0,0 l/m 0,0 km/h W 19,5 C 31,9 C 0,0 km/h
01.08.2014 16:00 34,8 C 42 % 979,9 hPa 0,0 l/m 3,9 km/h W-NW 20,0 C 34,8 C 2,2 km/h
01.08.2014 17:00 34,5 C 40 % 979,7 hPa 0,0 l/m 1,9 km/h N-NO 18,9 C 34,5 C 1,1 km/h
01.08.2014 18:00 35,2 C 39 % 979,5 hPa 0,0 l/m 3,2 km/h N 19,1 C 35,2 C 1,8 km/h
01.08.2014 19:00 31,7 C 44 % 979,3 hPa 0,0 l/m 0,0 km/h N 17,9 C 31,7 C 0,0 km/h
01.08.2014 20:00 25,3 C 62 % 979,3 hPa 0,0 l/m 0,0 km/h N 17,5 C 25,3 C 0,0 km/h
01.08.2014 21:00 21,4 C 75 % 979,1 hPa 0,0 l/m 0,0 km/h N-NO 16,8 C 21,4 C 0,0 km/h
01.08.2014 22:00 19,9 C 79 % 979,5 hPa 0,0 l/m 0,0 km/h N 16,1 C 19,9 C 0,0 km/h
01.08.2014 23:00 19,2 C 82 % 979,9 hPa 0,0 l/m 0,0 km/h SO 16,0 C 19,2 C 0,0 km/h
02.08.2014 00:00 18,6 C 81 % 979,5 hPa 0,0 l/m 0,0 km/h SO 15,3 C 18,6 C 0,0 km/h
02.08.2014 01:00 18,1 C 82 % 979,8 hPa 0,0 l/m 0,0 km/h SO 15,0 C 18,1 C 0,0 km/h
02.08.2014 02:00 16,9 C 84 % 979,4 hPa 0,0 l/m 0,0 km/h SO 14,2 C 16,9 C 0,0 km/h
02.08.2014 03:00 16,5 C 85 % 978,8 hPa 0,0 l/m 0,0 km/h O-SO 14,0 C 16,5 C 0,0 km/h
02.08.2014 04:00 16,4 C 85 % 978,8 hPa 0,0 l/m 0,0 km/h O-SO 13,9 C 16,4 C 0,0 km/h
02.08.2014 05:00 16,4 C 85 % 979,1 hPa 0,0 l/m 0,0 km/h O-SO 13,9 C 16,4 C 0,0 km/h
02.08.2014 06:00 16,6 C 86 % 979,1 hPa 0,0 l/m 0,0 km/h O-SO 14,2 C 16,6 C 0,0 km/h
02.08.2014 07:00 17,5 C 86 % 979,1 hPa 0,0 l/m 0,0 km/h O-SO 15,1 C 17,5 C 0,0 km/h
02.08.2014 08:00 19,1 C 85 % 979,4 hPa 0,0 l/m 0,0 km/h SO 16,5 C 19,1 C 0,0 km/h
02.08.2014 09:00 20,9 C 83 % 979,7 hPa 0,0 l/m 0,0 km/h W 17,9 C 20,9 C 0,0 km/h
02.08.2014 10:00 19,9 C 82 % 980,2 hPa 0,0 l/m 0,0 km/h W 16,7 C 19,9 C 0,0 km/h
02.08.2014 11:00 21,3 C 80 % 980,2 hPa 0,2 l/m 0,0 km/h N-NO 17,7 C 21,3 C 0,0 km/h
02.08.2014 12:00 23,5 C 78 % 980,0 hPa 0,0 l/m 0,0 km/h SO 19,4 C 23,5 C 0,0 km/h
02.08.2014 13:00 29,6 C 62 % 979,8 hPa 0,0 l/m 0,0 km/h SW 21,5 C 29,6 C 0,0 km/h
02.08.2014 14:00 29,4 C 54 % 979,7 hPa 0,0 l/m 8,4 km/h W-SW 19,1 C 29,2 C 4,7 km/h
02.08.2014 15:00 28,5 C 52 % 979,4 hPa 0,0 l/m 0,0 km/h W-NW 17,7 C 28,5 C 0,0 km/h
02.08.2014 16:00 29,8 C 49 % 979,0 hPa 0,0 l/m 11,0 km/h SW 17,9 C 29,4 C 6,1 km/h
02.08.2014 17:00 33,9 C 39 % 978,4 hPa 0,0 l/m 11,0 km/h W 18,0 C 33,9 C 6,1 km/h
02.08.2014 18:00 29,3 C 47 % 978,7 hPa 0,0 l/m 1,9 km/h W-NW 16,8 C 29,3 C 1,1 km/h
02.08.2014 19:00 25,9 C 60 % 978,7 hPa 0,0 l/m 0,0 km/h SW 17,5 C 25,9 C 0,0 km/h
02.08.2014 20:00 23,9 C 66 % 979,3 hPa 0,0 l/m 15,6 km/h SW 17,1 C 21,9 C 8,6 km/h
02.08.2014 21:00 21,3 C 69 % 979,8 hPa 0,0 l/m 2,9 km/h N-NW 15,4 C 21,3 C 2,9 km/h
02.08.2014 22:00 20,4 C 72 % 980,3 hPa 0,0 l/m 0,0 km/h O-NO 15,2 C 20,4 C 0,0 km/h
02.08.2014 23:00 17,9 C 79 % 981,0 hPa 0,0 l/m 0,0 km/h O-NO 14,2 C 17,9 C 0,0 km/h
03.08.2014 00:00 16,8 C 83 % 981,1 hPa 0,0 l/m 0,0 km/h O-NO 13,9 C 16,8 C 0,0 km/h
03.08.2014 01:00 16,9 C 85 % 981,1 hPa 0,0 l/m 0,0 km/h O-SO 14,4 C 16,9 C 0,0 km/h
03.08.2014 02:00 16,8 C 85 % 981,0 hPa 0,0 l/m 0,0 km/h O-SO 14,3 C 16,8 C 0,0 km/h
03.08.2014 03:00 16,8 C 85 % 981,0 hPa 0,0 l/m 0,0 km/h O-SO 14,3 C 16,8 C 0,0 km/h
03.08.2014 04:00 16,8 C 85 % 980,9 hPa 0,0 l/m 0,7 km/h SO 14,3 C 16,8 C 0,7 km/h
03.08.2014 05:00 16,7 C 86 % 981,0 hPa 0,0 l/m 0,0 km/h NO 14,3 C 16,7 C 0,0 km/h
03.08.2014 06:00 16,6 C 86 % 981,5 hPa 0,0 l/m 0,0 km/h O-SO 14,2 C 16,6 C 0,0 km/h
03.08.2014 07:00 17,3 C 86 % 982,2 hPa 0,0 l/m 0,0 km/h O-SO 14,9 C 17,3 C 0,0 km/h
03.08.2014 08:00 19,3 C 85 % 982,3 hPa 0,0 l/m 0,0 km/h S-SO 16,7 C 19,3 C 0,0 km/h
03.08.2014 09:00 21,4 C 80 % 982,9 hPa 0,0 l/m 0,0 km/h S-SW 17,8 C 21,4 C 0,0 km/h
03.08.2014 10:00 21,6 C 76 % 983,5 hPa 0,0 l/m 0,0 km/h W-SW 17,2 C 21,6 C 0,0 km/h
03.08.2014 11:00 22,2 C 75 % 983,7 hPa 0,0 l/m 11,0 km/h W-SW 17,5 C 20,8 C 6,1 km/h
03.08.2014 12:00 23,6 C 70 % 983,8 hPa 0,0 l/m 9,7 km/h W 17,8 C 22,7 C 5,4 km/h
03.08.2014 13:00 25,3 C 64 % 983,8 hPa 0,0 l/m 3,2 km/h SW 18,0 C 25,3 C 1,8 km/h
03.08.2014 14:00 24,9 C 62 % 983,5 hPa 0,0 l/m 0,0 km/h W-SW 17,1 C 24,9 C 0,0 km/h
03.08.2014 15:00 24,3 C 68 % 983,9 hPa 0,0 l/m 24,0 km/h SW 18,0 C 21,3 C 13,3 km/h
03.08.2014 16:00 23,8 C 68 % 984,0 hPa 0,0 l/m 7,8 km/h W 17,5 C 23,4 C 4,3 km/h
03.08.2014 17:00 25,5 C 61 % 983,5 hPa 0,0 l/m 0,0 km/h W 17,4 C 25,5 C 0,0 km/h
03.08.2014 18:00 24,6 C 66 % 984,0 hPa 0,0 l/m 4,5 km/h W-SW 17,8 C 24,6 C 2,5 km/h
03.08.2014 19:00 22,6 C 69 % 984,2 hPa 0,0 l/m 5,2 km/h W-SW 16,6 C 22,6 C 2,9 km/h
03.08.2014 20:00 20,8 C 72 % 984,0 hPa 0,0 l/m 0,0 km/h W-NW 15,6 C 20,8 C 0,0 km/h
03.08.2014 21:00 17,8 C 81 % 984,4 hPa 0,0 l/m 0,0 km/h W-NW 14,5 C 17,8 C 0,0 km/h
03.08.2014 22:00 16,5 C 84 % 984,9 hPa 0,0 l/m 0,0 km/h W 13,8 C 16,5 C 0,0 km/h
03.08.2014 23:00 15,9 C 85 % 985,2 hPa 0,0 l/m 0,0 km/h SO 13,4 C 15,9 C 0,0 km/h
Min-Datum _ 01.08.14 01.08.14 02.08.14 - 28.07.14 - 01.08.14 01.08.14 28.07.14
_ Min-Zeit 06:19 18:19 17:19 - 00:19 - 06:19 06:19 00:19
Minimum _ 13,6 C 39 % 978,4 hPa - 0,0 km/h - 11,1 C 13,6 C 0,0 km/h
Max-Datum _ 01.08.14 29.07.14 31.07.14 30.07.14 03.08.14 - 02.08.14 01.08.14 03.08.14
_ Max-Zeit 18:19 12:19 09:19 01:19 15:19 - 13:19 18:19 15:19
Maximum _ 35,2 C 87 % 986,9 hPa 2,3 l/m 24,0 km/h
SW
- 21,5 C 35,2 C 13,3 km/h
SW
Durchschnitt _ 20,6 C 76 % 982,1 hPa #17,8 l/m 1,2 km/h W 15,9 C 20,6 C 0,7 km/h
www.sexauwetter.de